createdAt,value
2023-03-21T00:01:51.713Z,9.70
2023-03-21T00:04:20.108Z,9.21
2023-03-21T00:06:49.638Z,9.64
2023-03-21T00:09:17.780Z,9.71
2023-03-21T00:11:46.537Z,9.76
2023-03-21T00:14:20.251Z,9.79
2023-03-21T00:16:50.841Z,9.81
2023-03-21T00:19:20.943Z,9.66
2023-03-21T00:22:06.534Z,9.39
2023-03-21T00:24:36.645Z,9.68
2023-03-21T00:27:33.669Z,9.52
2023-03-21T00:29:53.483Z,9.37
2023-03-21T00:32:23.065Z,9.40
2023-03-21T00:35:11.751Z,9.43
2023-03-21T00:37:41.957Z,9.30
2023-03-21T00:40:22.982Z,9.41
2023-03-21T00:42:53.386Z,9.48
2023-03-21T00:45:22.169Z,9.48
2023-03-21T00:47:50.695Z,9.51
2023-03-21T00:50:19.040Z,9.53
2023-03-21T00:52:48.610Z,9.49
2023-03-21T00:55:18.705Z,9.53
2023-03-21T00:57:50.204Z,9.58
2023-03-21T01:00:20.398Z,9.61
2023-03-21T01:03:04.512Z,9.70
2023-03-21T01:05:57.173Z,9.71
2023-03-21T01:08:35.160Z,9.40
2023-03-21T01:11:12.269Z,9.64
2023-03-21T01:13:47.473Z,9.45
2023-03-21T01:16:22.172Z,9.31
2023-03-21T01:18:50.307Z,9.52
2023-03-21T01:21:19.039Z,9.59
2023-03-21T01:23:49.177Z,9.56
2023-03-21T01:26:17.600Z,9.15
2023-03-21T01:28:46.661Z,8.81
2023-03-21T01:31:16.859Z,9.23
2023-03-21T01:33:46.092Z,9.54
2023-03-21T01:36:20.371Z,9.22
2023-03-21T01:38:51.964Z,9.55
2023-03-21T01:41:33.443Z,9.53
2023-03-21T01:44:06.068Z,9.50
2023-03-21T01:46:51.472Z,9.48
2023-03-21T01:49:26.863Z,9.48
2023-03-21T01:52:06.519Z,9.42
2023-03-21T01:54:44.281Z,9.53
2023-03-21T01:57:17.753Z,9.56
2023-03-21T01:59:50.196Z,9.48
2023-03-21T02:02:23.322Z,9.51
2023-03-21T02:04:56.169Z,8.75
2023-03-21T02:07:29.288Z,8.87
2023-03-21T02:10:00.022Z,9.42
2023-03-21T02:12:28.788Z,9.30
2023-03-21T02:14:57.532Z,9.30
2023-03-21T02:17:34.935Z,9.27
2023-03-21T02:20:38.019Z,9.05
2023-03-21T02:23:51.949Z,9.00
2023-03-21T02:26:55.085Z,9.11
2023-03-21T02:30:28.232Z,9.05
2023-03-21T02:33:14.994Z,9.25
2023-03-21T02:36:00.533Z,9.32
2023-03-21T02:38:37.795Z,9.27
2023-03-21T02:41:18.286Z,9.08
2023-03-21T02:43:53.656Z,9.00
2023-03-21T02:46:33.519Z,8.77
2023-03-21T02:49:14.053Z,8.82
2023-03-21T02:51:44.447Z,8.82
2023-03-21T02:54:30.237Z,8.75
2023-03-21T02:57:05.603Z,8.67
2023-03-21T02:59:39.374Z,8.56
2023-03-21T03:02:10.442Z,8.43
2023-03-21T03:04:38.636Z,8.38
2023-03-21T03:07:31.314Z,8.38
2023-03-21T03:10:21.306Z,8.40
2023-03-21T03:12:58.813Z,8.23
2023-03-21T03:15:38.696Z,8.28
2023-03-21T03:18:14.862Z,7.91
2023-03-21T03:20:54.241Z,8.08
2023-03-21T03:23:29.280Z,8.32
2023-03-21T03:26:05.017Z,8.25
2023-03-21T03:28:39.343Z,8.21
2023-03-21T03:31:12.247Z,8.21
2023-03-21T03:33:44.398Z,8.02
2023-03-21T03:36:33.559Z,8.26
2023-03-21T03:39:05.933Z,8.23
2023-03-21T03:42:04.274Z,8.12
2023-03-21T03:44:28.563Z,8.24
2023-03-21T03:47:02.446Z,8.26
2023-03-21T03:49:36.246Z,8.21
2023-03-21T03:52:11.077Z,8.13
2023-03-21T03:54:41.819Z,8.06
2023-03-21T03:57:12.543Z,7.73
2023-03-21T03:59:42.272Z,8.01
2023-03-21T04:02:10.933Z,7.89
2023-03-21T04:04:39.107Z,7.82
2023-03-21T04:07:07.839Z,7.83
2023-03-21T04:09:44.219Z,7.91
2023-03-21T04:12:14.989Z,7.86
2023-03-21T04:14:47.017Z,7.84
2023-03-21T04:17:16.395Z,7.79
2023-03-21T04:19:45.597Z,7.56
2023-03-21T04:22:14.360Z,7.64
2023-03-21T04:24:42.900Z,7.66
2023-03-21T04:27:11.360Z,7.56
2023-03-21T04:29:41.082Z,7.07
2023-03-21T04:32:16.445Z,7.48
2023-03-21T04:34:50.043Z,7.39
2023-03-21T04:37:19.411Z,7.28
2023-03-21T04:39:47.996Z,7.32
2023-03-21T04:42:18.571Z,7.19
2023-03-21T04:44:48.616Z,7.20
2023-03-21T04:47:20.509Z,6.98
2023-03-21T04:49:49.537Z,7.27
2023-03-21T04:52:18.153Z,7.24
2023-03-21T04:54:46.371Z,7.20
2023-03-21T04:57:15.048Z,7.15
2023-03-21T04:59:43.364Z,7.14
2023-03-21T05:02:13.083Z,7.18
2023-03-21T05:04:42.348Z,6.08
2023-03-21T05:07:10.867Z,7.07
2023-03-21T05:09:39.535Z,6.54
2023-03-21T05:12:07.986Z,7.12
2023-03-21T05:14:36.212Z,7.03
2023-03-21T05:17:05.610Z,7.04
2023-03-21T05:19:40.756Z,7.07
2023-03-21T05:22:12.190Z,7.05
2023-03-21T05:24:42.151Z,7.13
2023-03-21T05:27:10.579Z,7.14
2023-03-21T05:29:38.819Z,7.07
2023-03-21T05:32:07.239Z,6.97
2023-03-21T05:34:36.854Z,7.14
2023-03-21T05:37:04.979Z,7.20
2023-03-21T05:39:33.154Z,7.10
2023-03-21T05:42:01.357Z,6.94
2023-03-21T05:44:29.453Z,7.26
2023-03-21T05:46:57.603Z,7.32
2023-03-21T05:49:26.804Z,6.53
2023-03-21T05:51:56.395Z,7.41
2023-03-21T05:54:24.841Z,7.50
2023-03-21T05:56:53.055Z,7.61
2023-03-21T05:59:21.293Z,7.76
2023-03-21T06:01:49.569Z,7.97
2023-03-21T06:04:17.816Z,7.66
2023-03-21T06:06:46.105Z,8.08
2023-03-21T06:09:15.695Z,8.19
2023-03-21T06:11:48.492Z,8.44
2023-03-21T06:14:20.005Z,8.49
2023-03-21T06:16:48.406Z,8.73
2023-03-21T06:19:16.736Z,8.93
2023-03-21T06:21:44.946Z,9.09
2023-03-21T06:24:13.241Z,9.22
2023-03-21T06:26:43.606Z,9.38
2023-03-21T06:29:12.256Z,9.67
2023-03-21T06:31:40.584Z,9.80
2023-03-21T06:34:10.805Z,9.99
2023-03-21T06:36:39.504Z,10.09
2023-03-21T06:39:08.897Z,10.11
2023-03-21T06:41:37.116Z,10.45
2023-03-21T06:44:06.835Z,10.51
2023-03-21T06:46:35.129Z,10.09
2023-03-21T06:49:03.318Z,10.89
2023-03-21T06:51:31.637Z,11.00
2023-03-21T06:53:59.897Z,11.15
2023-03-21T06:56:28.208Z,10.90
2023-03-21T06:58:56.455Z,11.03
2023-03-21T07:01:27.755Z,10.95
2023-03-21T07:03:57.737Z,10.76
2023-03-21T07:06:27.419Z,10.89
2023-03-21T07:08:56.725Z,10.86
2023-03-21T07:11:25.914Z,11.12
2023-03-21T07:13:54.579Z,11.04
2023-03-21T07:16:23.030Z,11.21
2023-03-21T07:18:53.289Z,11.31
2023-03-21T07:21:21.735Z,11.47
2023-03-21T07:23:50.508Z,11.65
2023-03-21T07:26:19.512Z,11.92
2023-03-21T07:28:47.784Z,12.21
2023-03-21T07:31:18.145Z,12.32
2023-03-21T07:33:46.629Z,12.32
2023-03-21T07:36:17.248Z,12.53
2023-03-21T07:38:45.994Z,12.85
2023-03-21T07:43:47.788Z,13.32
2023-03-21T07:46:16.044Z,13.29
2023-03-21T07:48:45.580Z,13.06
2023-03-21T07:51:15.228Z,13.12
2023-03-21T07:53:44.010Z,13.02
2023-03-21T07:56:12.341Z,13.32
2023-03-21T07:58:40.538Z,13.37
2023-03-21T08:01:08.946Z,13.62
2023-03-21T08:03:38.151Z,13.77
2023-03-21T08:06:07.058Z,13.92
2023-03-21T08:08:36.714Z,13.91
2023-03-21T08:11:05.735Z,13.87
2023-03-21T08:13:33.997Z,13.60
2023-03-21T08:16:02.207Z,13.87
2023-03-21T08:18:30.505Z,13.84
2023-03-21T08:20:59.489Z,14.00
2023-03-21T08:23:27.937Z,13.90
2023-03-21T08:25:58.493Z,14.17
2023-03-21T08:28:26.726Z,14.59
2023-03-21T08:30:55.262Z,14.72
2023-03-21T08:33:24.080Z,14.80
2023-03-21T08:35:52.338Z,14.88
2023-03-21T08:38:20.881Z,15.00
2023-03-21T08:40:49.108Z,14.75
2023-03-21T08:43:18.792Z,15.04
2023-03-21T08:45:47.029Z,14.95
2023-03-21T08:48:15.475Z,15.25
2023-03-21T08:50:43.739Z,15.42
2023-03-21T08:53:11.974Z,15.51
2023-03-21T08:55:40.567Z,15.51
2023-03-21T08:58:09.117Z,15.57
2023-03-21T09:00:38.884Z,15.71
2023-03-21T09:03:07.110Z,15.78
2023-03-21T09:05:36.816Z,15.64
2023-03-21T09:08:06.220Z,15.75
2023-03-21T09:10:34.448Z,15.67
2023-03-21T09:13:02.695Z,15.80
2023-03-21T09:15:30.988Z,16.04
2023-03-21T09:18:13.197Z,16.29
2023-03-21T09:20:43.084Z,16.02
2023-03-21T09:23:12.394Z,16.56
2023-03-21T09:25:41.103Z,16.39
2023-03-21T09:28:09.913Z,16.42
2023-03-21T09:30:38.620Z,16.67
2023-03-21T09:33:13.361Z,16.88
2023-03-21T09:35:42.901Z,17.05
2023-03-21T09:38:11.351Z,17.06
2023-03-21T09:40:58.641Z,17.46
2023-03-21T09:43:42.242Z,17.43
2023-03-21T09:46:16.683Z,17.27
2023-03-21T09:48:57.863Z,17.26
2023-03-21T09:51:31.428Z,17.11
2023-03-21T09:54:04.976Z,17.19
2023-03-21T09:56:33.282Z,16.71
2023-03-21T09:59:03.325Z,17.16
2023-03-21T10:01:34.490Z,16.79
2023-03-21T10:04:07.642Z,17.02
2023-03-21T10:06:40.353Z,16.99
2023-03-21T10:09:15.164Z,16.98
2023-03-21T10:11:46.323Z,16.40
2023-03-21T10:14:20.007Z,16.07
2023-03-21T10:16:51.216Z,16.68
2023-03-21T10:19:21.654Z,16.86
2023-03-21T10:22:02.317Z,17.05
2023-03-21T10:24:34.447Z,17.25
2023-03-21T10:27:04.481Z,17.51
2023-03-21T10:29:43.693Z,17.75
2023-03-21T10:32:14.676Z,17.92
2023-03-21T10:34:48.033Z,17.88
2023-03-21T10:37:17.853Z,17.83
2023-03-21T10:39:50.126Z,17.88
2023-03-21T10:42:22.384Z,17.90
2023-03-21T10:44:52.613Z,17.98
2023-03-21T10:47:22.717Z,18.10
2023-03-21T10:50:09.885Z,17.97
2023-03-21T10:52:43.206Z,18.30
2023-03-21T10:55:21.660Z,18.45
2023-03-21T10:57:53.494Z,18.57
2023-03-21T11:00:24.819Z,18.75
2023-03-21T11:02:55.278Z,18.89
2023-03-21T11:05:28.824Z,18.99
2023-03-21T11:08:03.078Z,18.48
2023-03-21T11:10:34.512Z,18.74
2023-03-21T11:13:07.922Z,18.60
2023-03-21T11:15:44.059Z,18.50
2023-03-21T11:18:19.172Z,18.31
2023-03-21T11:20:54.249Z,18.15
2023-03-21T11:23:26.750Z,18.08
2023-03-21T11:25:55.141Z,18.06
2023-03-21T11:28:25.575Z,17.92
2023-03-21T11:30:56.696Z,17.64
2023-03-21T11:33:28.432Z,17.56
2023-03-21T11:36:03.835Z,17.51
2023-03-21T11:38:37.414Z,17.36
2023-03-21T11:41:07.569Z,17.58
2023-03-21T11:43:38.215Z,17.83
2023-03-21T11:46:10.944Z,17.84
2023-03-21T11:48:42.244Z,18.21
2023-03-21T11:51:23.572Z,18.34
2023-03-21T11:54:03.810Z,18.32
2023-03-21T11:56:35.689Z,18.32
2023-03-21T11:59:23.483Z,18.08
2023-03-21T12:02:04.987Z,17.97
2023-03-21T12:04:41.992Z,17.90
2023-03-21T12:07:49.332Z,17.85
2023-03-21T12:10:40.492Z,17.92
2023-03-21T12:13:34.675Z,17.77
2023-03-21T12:16:16.717Z,17.93
2023-03-21T12:19:02.469Z,17.91
2023-03-21T12:21:37.639Z,16.90
2023-03-21T12:24:13.635Z,18.11
2023-03-21T12:26:51.331Z,18.43
2023-03-21T12:29:37.875Z,18.92
2023-03-21T12:32:18.648Z,19.05
2023-03-21T12:35:10.716Z,19.21
2023-03-21T12:37:48.501Z,19.48
2023-03-21T12:40:28.454Z,19.50
2023-03-21T12:43:17.261Z,19.40
2023-03-21T12:45:50.192Z,19.07
2023-03-21T12:48:27.214Z,19.15
2023-03-21T12:50:57.714Z,19.17
2023-03-21T12:53:40.865Z,19.07
2023-03-21T12:56:15.538Z,19.12
2023-03-21T12:58:49.477Z,19.43
2023-03-21T13:01:21.240Z,19.62
2023-03-21T13:03:57.728Z,19.63
2023-03-21T13:06:28.633Z,19.62
2023-03-21T13:09:02.340Z,19.76
2023-03-21T13:11:33.054Z,19.73
2023-03-21T13:14:07.401Z,20.25
2023-03-21T13:16:38.983Z,20.54
2023-03-21T13:19:21.327Z,20.69
2023-03-21T13:21:58.138Z,20.79
2023-03-21T13:24:29.660Z,20.86
2023-03-21T13:27:07.073Z,20.87
2023-03-21T13:29:44.370Z,21.09
2023-03-21T13:32:24.131Z,21.25
2023-03-21T13:34:57.472Z,21.11
2023-03-21T13:37:28.088Z,20.70
2023-03-21T13:40:02.400Z,21.08
2023-03-21T13:42:35.232Z,20.93
2023-03-21T13:45:06.897Z,20.83
2023-03-21T13:47:43.497Z,21.59
2023-03-21T13:50:55.367Z,22.38
2023-03-21T13:53:27.460Z,23.01
2023-03-21T13:56:23.768Z,23.48
2023-03-21T13:58:56.344Z,23.55
2023-03-21T14:01:39.755Z,23.89
2023-03-21T14:04:17.384Z,24.16
2023-03-21T14:06:52.592Z,23.49
2023-03-21T14:09:27.089Z,22.59
2023-03-21T14:11:58.744Z,22.12
2023-03-21T14:14:38.950Z,21.68
2023-03-21T14:17:13.705Z,21.36
2023-03-21T14:19:41.941Z,21.02
2023-03-21T14:22:14.947Z,20.85
2023-03-21T14:24:49.466Z,20.70
2023-03-21T14:27:18.736Z,19.84
2023-03-21T14:29:50.110Z,20.44
2023-03-21T14:32:24.436Z,20.28
2023-03-21T14:34:52.789Z,19.95
2023-03-21T14:37:29.772Z,19.91
2023-03-21T14:40:02.707Z,20.04
2023-03-21T14:42:35.833Z,20.20
2023-03-21T14:45:17.497Z,20.16
2023-03-21T14:48:00.789Z,20.01
2023-03-21T14:50:39.407Z,20.05
2023-03-21T14:53:08.969Z,20.02
2023-03-21T14:55:43.724Z,20.02
2023-03-21T14:58:15.034Z,19.90
2023-03-21T15:00:44.866Z,19.96
2023-03-21T15:03:16.312Z,19.94
2023-03-21T15:05:44.663Z,19.92
2023-03-21T15:08:17.494Z,19.91
2023-03-21T15:11:06.235Z,19.72
2023-03-21T15:13:37.706Z,19.69
2023-03-21T15:16:09.217Z,19.35
2023-03-21T15:18:40.222Z,19.43
2023-03-21T15:21:12.723Z,19.66
2023-03-21T15:23:43.956Z,19.52
2023-03-21T15:26:17.783Z,19.44
2023-03-21T15:28:47.863Z,19.16
2023-03-21T15:31:20.472Z,19.28
2023-03-21T15:33:50.230Z,19.22
2023-03-21T15:36:22.543Z,19.10
2023-03-21T15:38:51.429Z,19.08
2023-03-21T15:41:29.270Z,19.22
2023-03-21T15:44:04.046Z,19.37
2023-03-21T15:46:43.303Z,19.44
2023-03-21T15:49:19.573Z,19.39
2023-03-21T15:51:50.944Z,19.47
2023-03-21T15:54:24.768Z,19.74
2023-03-21T15:56:56.141Z,19.65
2023-03-21T15:59:28.384Z,19.60
2023-03-21T16:01:58.221Z,19.36
2023-03-21T16:04:26.965Z,19.14
2023-03-21T16:07:00.305Z,18.99
2023-03-21T16:09:29.655Z,18.65
2023-03-21T16:11:59.934Z,18.94
2023-03-21T16:14:28.756Z,18.97
2023-03-21T16:16:59.287Z,18.90
2023-03-21T16:19:29.773Z,18.83
2023-03-21T16:21:57.954Z,18.78
2023-03-21T16:24:26.356Z,18.71
2023-03-21T16:26:55.290Z,18.77
2023-03-21T16:29:23.879Z,18.44
2023-03-21T16:31:52.538Z,18.68
2023-03-21T16:34:22.261Z,18.39
2023-03-21T16:36:50.661Z,18.52
2023-03-21T16:39:20.708Z,18.21
2023-03-21T16:41:50.649Z,18.10
2023-03-21T16:44:19.440Z,18.09
2023-03-21T16:46:48.522Z,18.04
2023-03-21T16:49:22.244Z,17.91
2023-03-21T16:51:50.454Z,17.79
2023-03-21T16:54:18.773Z,17.64
2023-03-21T16:56:49.007Z,17.54
2023-03-21T16:59:17.192Z,17.26
2023-03-21T17:01:46.312Z,17.30
2023-03-21T17:04:14.987Z,17.16
2023-03-21T17:06:47.568Z,17.11
2023-03-21T17:09:17.370Z,17.00
2023-03-21T17:11:45.915Z,16.85
2023-03-21T17:14:16.972Z,16.66
2023-03-21T17:16:45.835Z,16.40
2023-03-21T17:19:15.504Z,16.24
2023-03-21T17:21:45.867Z,16.24
2023-03-21T17:24:14.105Z,16.17
2023-03-21T17:26:42.591Z,15.31
2023-03-21T17:29:13.433Z,15.81
2023-03-21T17:31:41.683Z,15.51
2023-03-21T17:34:09.874Z,15.34
2023-03-21T17:36:40.324Z,15.42
2023-03-21T17:39:16.130Z,15.26
2023-03-21T17:41:44.345Z,15.03
2023-03-21T17:44:12.555Z,14.91
2023-03-21T17:46:40.865Z,14.67
2023-03-21T17:49:10.253Z,14.36
2023-03-21T17:51:38.779Z,14.67
2023-03-21T17:54:07.320Z,14.49
2023-03-21T17:56:37.795Z,14.57
2023-03-21T17:59:08.589Z,14.55
2023-03-21T18:01:36.832Z,14.47
2023-03-21T18:04:05.576Z,14.37
2023-03-21T18:06:35.374Z,13.79
2023-03-21T18:09:07.962Z,14.25
2023-03-21T18:11:37.980Z,14.16
2023-03-21T18:14:15.929Z,14.15
2023-03-21T18:16:46.494Z,14.19
2023-03-21T18:19:14.996Z,14.07
2023-03-21T18:21:45.839Z,14.17
2023-03-21T18:24:14.932Z,14.13
2023-03-21T18:26:46.193Z,14.17
2023-03-21T18:30:17.491Z,14.11
2023-03-21T18:32:07.694Z,14.08
2023-03-21T18:34:37.144Z,13.91
2023-03-21T18:37:07.597Z,13.20
2023-03-21T18:39:36.548Z,13.94
2023-03-21T18:42:07.167Z,13.97
2023-03-21T18:44:38.922Z,13.96
2023-03-21T18:47:08.611Z,13.87
2023-03-21T18:52:26.562Z,13.81
2023-03-21T18:54:55.423Z,13.75
2023-03-21T18:57:36.468Z,13.69
2023-03-21T19:00:12.948Z,13.64
2023-03-21T19:02:46.411Z,13.62
2023-03-21T19:05:17.220Z,13.58
2023-03-21T19:07:46.026Z,13.57
2023-03-21T19:10:19.704Z,13.53
2023-03-21T19:12:50.714Z,13.31
2023-03-21T19:15:21.694Z,13.18
2023-03-21T19:18:30.689Z,13.42
2023-03-21T19:20:44.283Z,12.69
2023-03-21T19:23:12.667Z,13.06
2023-03-21T19:25:40.975Z,13.36
2023-03-21T19:28:10.992Z,13.21
2023-03-21T19:30:39.989Z,13.30
2023-03-21T19:33:08.735Z,13.01
2023-03-21T19:35:40.790Z,13.22
2023-03-21T19:38:09.332Z,13.10
2023-03-21T19:40:40.536Z,13.12
2023-03-21T19:43:31.661Z,13.23
2023-03-21T19:46:00.790Z,13.12
2023-03-21T19:48:29.486Z,12.93
2023-03-21T19:51:26.252Z,12.93
2023-03-21T19:53:46.186Z,12.71
2023-03-21T19:56:22.289Z,12.75
2023-03-21T19:58:53.442Z,12.85
2023-03-21T20:01:22.020Z,11.10
2023-03-21T20:03:50.299Z,12.76
2023-03-21T20:06:19.609Z,12.77
2023-03-21T20:11:37.031Z,12.57
2023-03-21T20:14:06.887Z,12.39
2023-03-21T20:16:36.915Z,12.56
2023-03-21T20:19:06.083Z,12.51
2023-03-21T20:21:44.826Z,12.38
2023-03-21T20:24:14.371Z,12.42
2023-03-21T20:26:42.571Z,12.37
2023-03-21T20:30:00.191Z,12.43
2023-03-21T20:32:00.879Z,12.37
2023-03-21T20:34:30.649Z,12.34
2023-03-21T20:36:59.842Z,12.21
2023-03-21T20:39:29.920Z,12.17
2023-03-21T20:41:59.593Z,11.84
2023-03-21T20:47:18.229Z,12.22
2023-03-21T20:49:46.824Z,12.17
2023-03-21T20:52:52.195Z,12.13
2023-03-21T20:55:06.895Z,12.08
2023-03-21T20:57:38.554Z,12.13
2023-03-21T21:00:15.164Z,12.01
2023-03-21T21:02:44.889Z,11.98
2023-03-21T21:05:28.802Z,11.75
2023-03-21T21:07:59.058Z,11.79
2023-03-21T21:10:27.303Z,11.72
2023-03-21T21:12:55.764Z,11.71
2023-03-21T21:15:25.516Z,11.57
2023-03-21T21:18:06.521Z,11.56
2023-03-21T21:20:36.150Z,11.61
2023-03-21T21:23:04.739Z,11.67
2023-03-21T21:25:34.132Z,11.32
2023-03-21T21:28:02.953Z,11.56
2023-03-21T21:30:34.593Z,11.59
2023-03-21T21:33:02.826Z,11.54
2023-03-21T21:35:33.662Z,11.41
2023-03-21T21:38:02.070Z,11.20
2023-03-21T21:40:30.274Z,11.13
2023-03-21T21:43:03.580Z,11.25
2023-03-21T21:45:33.693Z,11.26
2023-03-21T21:48:02.222Z,11.21
2023-03-21T21:50:30.515Z,11.33
2023-03-21T21:53:04.010Z,11.27
2023-03-21T21:55:32.564Z,11.21
2023-03-21T21:58:00.956Z,11.21
2023-03-21T22:00:32.249Z,11.13
2023-03-21T22:03:02.405Z,11.07
2023-03-21T22:05:30.685Z,10.60
2023-03-21T22:07:58.995Z,11.02
2023-03-21T22:10:28.646Z,10.80
2023-03-21T22:12:56.827Z,9.45
2023-03-21T22:15:25.139Z,10.66
2023-03-21T22:17:53.734Z,10.89
2023-03-21T22:20:23.856Z,10.80
2023-03-21T22:22:52.366Z,10.79
2023-03-21T22:25:20.851Z,10.75
2023-03-21T22:27:48.985Z,10.70
2023-03-21T22:30:18.712Z,10.67
2023-03-21T22:33:02.591Z,10.60
2023-03-21T22:35:38.151Z,10.58
2023-03-21T22:38:06.465Z,10.56
2023-03-21T22:40:34.649Z,10.45
2023-03-21T22:43:02.949Z,10.29
2023-03-21T22:45:31.213Z,10.20
2023-03-21T22:48:00.094Z,10.32
2023-03-21T22:50:28.933Z,10.25
2023-03-21T22:52:58.597Z,10.08
2023-03-21T22:55:26.813Z,10.17
2023-03-21T22:57:54.921Z,10.14
2023-03-21T23:00:23.177Z,9.85
2023-03-21T23:02:51.277Z,10.10
2023-03-21T23:05:20.264Z,10.05
2023-03-21T23:07:48.433Z,9.87
2023-03-21T23:10:18.370Z,9.96
2023-03-21T23:12:46.572Z,9.89
2023-03-21T23:15:14.771Z,9.86
2023-03-21T23:17:44.274Z,10.01
2023-03-21T23:20:12.818Z,9.94
2023-03-21T23:22:41.353Z,9.84
2023-03-21T23:25:10.311Z,9.89
2023-03-21T23:27:40.025Z,9.94
2023-03-21T23:30:08.947Z,9.80
2023-03-21T23:32:37.161Z,9.62
2023-03-21T23:35:05.980Z,9.63
2023-03-21T23:37:34.188Z,9.40
2023-03-21T23:40:02.522Z,9.58
2023-03-21T23:42:31.315Z,9.51
2023-03-21T23:45:01.222Z,9.53
2023-03-21T23:47:31.091Z,9.54
2023-03-21T23:49:59.245Z,9.51
2023-03-21T23:52:27.427Z,9.43
2023-03-21T23:54:55.710Z,9.44
2023-03-21T23:57:23.852Z,9.39
2023-03-21T23:59:55.446Z,9.32
